^^
Your Local Weather - Clay, NY Station Historical Data
Daily Summary for February 9, 2017 Units:  English    Metric   Both
« Previous Day
Next Day »
Daily Weekly Monthly Yearly Custom
  High: Low: Average:
Temperature: 26.3 °F 10.3 °F 17.2 °F
Dew Point: 18.3 °F 2.6 °F 10 °F
Humidity: 88% 57% 73%
Wind Speed: 8.0mph 0.0mph 3.7mph
Wind Gust: 12.0mph - -
Wind- - NW
Pressure: 30.00 in 29.76 in -
Precipitation: 0.00 in    
Historical Graphs
 
 
Tabular Data for February 9, 2017
Time Temperature Dew Point Pressure Wind Wind Speed Wind Gust Humidity Rainfall Rate (Hourly) solar
00:02 26.3 °F 16.8 °F 29.80 in NW 3.0 mph 10.0 mph 67% 0.00 in 0 W/m2
00:08 26.2 °F 17.1 °F 29.80 in NW 4.0 mph 10.0 mph 68% 0.00 in 0 W/m2
00:14 26.1 °F 17.0 °F 29.80 in NW 3.0 mph 5.0 mph 68% 0.00 in 0 W/m2
00:20 26.0 °F 17.2 °F 29.80 in NW 4.0 mph 4.0 mph 69% 0.00 in 0 W/m2
00:26 25.9 °F 17.8 °F 29.80 in NNW 4.0 mph 4.0 mph 71% 0.00 in 0 W/m2
00:32 25.7 °F 17.6 °F 29.80 in North 4.0 mph 6.0 mph 71% 0.00 in 0 W/m2
00:38 25.5 °F 17.4 °F 29.80 in North 5.0 mph 7.0 mph 71% 0.00 in 0 W/m2
00:44 25.4 °F 17.3 °F 29.81 in North 4.0 mph 5.0 mph 71% 0.00 in 0 W/m2
00:50 25.4 °F 17.3 °F 29.80 in NNW 3.0 mph 4.0 mph 71% 0.00 in 0 W/m2
00:56 25.4 °F 17.0 °F 29.79 in North 4.0 mph 7.0 mph 70% 0.00 in 0 W/m2
01:02 25.2 °F 16.1 °F 29.77 in NE 5.0 mph 5.0 mph 68% 0.00 in 0 W/m2
01:08 25.1 °F 16.0 °F 29.77 in North 5.0 mph 6.0 mph 68% 0.00 in 0 W/m2
01:14 25.0 °F 15.6 °F 29.76 in NNW 5.0 mph 6.0 mph 67% 0.00 in 0 W/m2
01:20 24.9 °F 15.5 °F 29.76 in NNW 5.0 mph 5.0 mph 67% 0.00 in 0 W/m2
01:26 24.9 °F 15.1 °F 29.76 in North 4.0 mph 6.0 mph 66% 0.00 in 0 W/m2
01:32 24.7 °F 14.9 °F 29.77 in NNW 5.0 mph 5.0 mph 66% 0.00 in 0 W/m2
01:38 24.7 °F 14.9 °F 29.77 in North 5.0 mph 8.0 mph 66% 0.00 in 0 W/m2
01:44 24.7 °F 14.9 °F 29.76 in NNW 5.0 mph 6.0 mph 66% 0.00 in 0 W/m2
01:50 24.6 °F 14.9 °F 29.76 in North 5.0 mph 5.0 mph 66% 0.00 in 0 W/m2
01:56 24.6 °F 14.9 °F 29.76 in NNE 5.0 mph 5.0 mph 66% 0.00 in 0 W/m2
02:02 24.5 °F 14.8 °F 29.76 in NNW 4.0 mph 5.0 mph 66% 0.00 in 0 W/m2
02:08 24.3 °F 15.9 °F 29.76 in NW 4.0 mph 5.0 mph 70% 0.00 in 0 W/m2
02:14 24.0 °F 16.3 °F 29.77 in North 3.0 mph 4.0 mph 72% 0.00 in 0 W/m2
02:20 23.7 °F 16.6 °F 29.77 in NNW 2.0 mph 2.0 mph 74% 0.00 in 0 W/m2
02:26 23.3 °F 17.2 °F 29.78 in North 3.0 mph 4.0 mph 77% 0.00 in 0 W/m2
02:32 22.6 °F 17.4 °F 29.77 in North 4.0 mph 4.0 mph 80% 0.00 in 0 W/m2
02:38 22.0 °F 17.6 °F 29.77 in North 4.0 mph 4.0 mph 83% 0.00 in 0 W/m2
02:44 21.8 °F 17.7 °F 29.77 in North 3.0 mph 4.0 mph 84% 0.00 in 0 W/m2
02:50 21.6 °F 17.8 °F 29.77 in North 3.0 mph 3.0 mph 85% 0.00 in 0 W/m2
02:56 21.5 °F 18.0 °F 29.78 in NNW 2.0 mph 3.0 mph 86% 0.00 in 0 W/m2
03:02 21.6 °F 18.3 °F 29.78 in North 1.0 mph 3.0 mph 87% 0.00 in 0 W/m2
03:08 21.4 °F 18.1 °F 29.78 in North 2.0 mph 3.0 mph 87% 0.00 in 0 W/m2
03:14 21.3 °F 18.0 °F 29.78 in North 2.0 mph 3.0 mph 87% 0.00 in 0 W/m2
03:20 21.2 °F 17.9 °F 29.78 in NNW 2.0 mph 2.0 mph 87% 0.00 in 0 W/m2
03:26 21.2 °F 17.9 °F 29.79 in NNW 2.0 mph 4.0 mph 87% 0.00 in 0 W/m2
03:32 21.1 °F 17.8 °F 29.79 in NNW 2.0 mph 2.0 mph 87% 0.00 in 0 W/m2
03:38 21.1 °F 17.8 °F 29.79 in NNW 1.0 mph 2.0 mph 87% 0.00 in 0 W/m2
03:44 21.0 °F 17.7 °F 29.79 in NNW 1.0 mph 2.0 mph 87% 0.00 in 0 W/m2
03:50 21.0 °F 18.0 °F 29.79 in NNW 1.0 mph 1.0 mph 88% 0.00 in 0 W/m2
03:56 21.0 °F 18.0 °F 29.79 in NNW 1.0 mph 1.0 mph 88% 0.00 in 0 W/m2
04:02 21.0 °F 18.0 °F 29.79 in NNW 1.0 mph 3.0 mph 88% 0.00 in 0 W/m2
04:08 21.0 °F 18.0 °F 29.79 in NNW 1.0 mph 3.0 mph 88% 0.00 in 0 W/m2
04:14 20.6 °F 17.3 °F 29.80 in NW 2.0 mph 7.0 mph 87% 0.00 in 0 W/m2
04:20 19.8 °F 16.6 °F 29.80 in NNW 4.0 mph 4.0 mph 87% 0.00 in 0 W/m2
04:26 19.5 °F 16.3 °F 29.80 in NNW 5.0 mph 5.0 mph 87% 0.00 in 0 W/m2
04:32 19.1 °F 15.9 °F 29.80 in NNW 5.0 mph 5.0 mph 87% 0.00 in 0 W/m2
04:38 19.0 °F 16.0 °F 29.81 in North 4.0 mph 6.0 mph 88% 0.00 in 0 W/m2
04:44 18.5 °F 15.3 °F 29.81 in NW 4.0 mph 7.0 mph 87% 0.00 in 0 W/m2
04:50 18.1 °F 14.9 °F 29.81 in NNW 5.0 mph 5.0 mph 87% 0.00 in 0 W/m2
04:56 17.9 °F 14.9 °F 29.81 in NNW 4.0 mph 5.0 mph 88% 0.00 in 0 W/m2
05:02 17.7 °F 14.5 °F 29.81 in NNW 4.0 mph 4.0 mph 87% 0.00 in 0 W/m2
05:08 17.5 °F 14.6 °F 29.81 in WNW 4.0 mph 9.0 mph 88% 0.00 in 0 W/m2
05:14 17.3 °F 14.4 °F 29.81 in North 5.0 mph 5.0 mph 88% 0.00 in 0 W/m2
05:20 17.2 °F 14.0 °F 29.81 in NNW 5.0 mph 5.0 mph 87% 0.00 in 0 W/m2
05:26 17.1 °F 13.9 °F 29.81 in NNW 5.0 mph 7.0 mph 87% 0.00 in 0 W/m2
05:32 16.8 °F 13.6 °F 29.81 in NNW 6.0 mph 6.0 mph 87% 0.00 in 0 W/m2
05:38 16.6 °F 13.4 °F 29.80 in North 6.0 mph 7.0 mph 87% 0.00 in 0 W/m2
05:44 16.4 °F 13.2 °F 29.80 in NNW 5.0 mph 8.0 mph 87% 0.00 in 0 W/m2
05:50 16.3 °F 12.8 °F 29.80 in NNW 6.0 mph 6.0 mph 86% 0.00 in 0 W/m2
05:56 16.3 °F 12.8 °F 29.80 in NW 5.0 mph 7.0 mph 86% 0.00 in 0 W/m2
06:02 16.3 °F 12.8 °F 29.81 in NNW 4.0 mph 7.0 mph 86% 0.00 in 0 W/m2
06:08 16.4 °F 12.9 °F 29.81 in NNW 3.0 mph 7.0 mph 86% 0.00 in 0 W/m2
06:14 16.4 °F 12.7 °F 29.83 in NNW 3.0 mph 3.0 mph 85% 0.00 in 0 W/m2
06:20 16.4 °F 12.1 °F 29.82 in NNW 4.0 mph 4.0 mph 83% 0.00 in 0 W/m2
06:26 16.4 °F 11.9 °F 29.83 in NNW 4.0 mph 5.0 mph 82% 0.00 in 0 W/m2
06:32 16.4 °F 11.9 °F 29.83 in North 4.0 mph 4.0 mph 82% 0.00 in 0 W/m2
06:38 16.4 °F 11.6 °F 29.83 in North 4.0 mph 6.0 mph 81% 0.00 in 0 W/m2
06:44 16.2 °F 11.4 °F 29.83 in North 5.0 mph 5.0 mph 81% 0.00 in 0 W/m2
06:50 16.2 °F 11.7 °F 29.83 in NNW 4.0 mph 4.0 mph 82% 0.00 in 0 W/m2
06:56 16.1 °F 11.3 °F 29.83 in North 4.0 mph 7.0 mph 81% 0.00 in 0 W/m2
07:02 15.8 °F 10.4 °F 29.84 in North 6.0 mph 7.0 mph 79% 0.00 in 0 W/m2
07:08 15.7 °F 10.3 °F 29.84 in NNW 6.0 mph 8.0 mph 79% 0.00 in 0 W/m2
07:14 15.6 °F 10.2 °F 29.84 in NNW 5.0 mph 6.0 mph 79% 0.00 in 0 W/m2
07:20 15.5 °F 9.9 °F 29.84 in North 4.0 mph 9.0 mph 78% 0.00 in 0 W/m2
07:26 15.2 °F 9.3 °F 29.84 in NNW 5.0 mph 9.0 mph 77% 0.00 in 0 W/m2
07:32 15.1 °F 9.2 °F 29.84 in NNW 4.0 mph 9.0 mph 77% 0.00 in 0 W/m2
07:38 14.9 °F 9.0 °F 29.85 in NNW 4.0 mph 9.0 mph 77% 0.00 in 7 W/m2
07:44 14.7 °F 8.5 °F 29.86 in NNW 5.0 mph 9.0 mph 76% 0.00 in 9 W/m2
07:50 14.7 °F 8.8 °F 29.86 in NW 5.0 mph 5.0 mph 77% 0.00 in 12 W/m2
07:56 14.8 °F 9.2 °F 29.86 in NW 4.0 mph 6.0 mph 78% 0.00 in 12 W/m2
08:02 14.8 °F 9.2 °F 29.86 in NNW 4.0 mph 4.0 mph 78% 0.00 in 16 W/m2
08:08 14.8 °F 9.2 °F 29.86 in North 4.0 mph 5.0 mph 78% 0.00 in 30 W/m2
08:14 14.8 °F 9.2 °F 29.86 in NW 4.0 mph 5.0 mph 78% 0.00 in 37 W/m2
08:20 15.0 °F 9.4 °F 29.86 in NW 3.0 mph 3.0 mph 78% 0.00 in 49 W/m2
08:26 15.1 °F 9.5 °F 29.86 in NNW 2.0 mph 3.0 mph 78% 0.00 in 54 W/m2
08:32 15.1 °F 9.2 °F 29.86 in NW 3.0 mph 6.0 mph 77% 0.00 in 58 W/m2
08:38 14.9 °F 9.0 °F 29.86 in NNW 5.0 mph 6.0 mph 77% 0.00 in 63 W/m2
08:44 14.8 °F 8.6 °F 29.86 in NNW 5.0 mph 6.0 mph 76% 0.00 in 72 W/m2
08:50 14.9 °F 9.0 °F 29.86 in NNW 5.0 mph 5.0 mph 77% 0.00 in 77 W/m2
08:56 15.0 °F 9.1 °F 29.86 in North 4.0 mph 5.0 mph 77% 0.00 in 79 W/m2
09:02 15.0 °F 8.8 °F 29.86 in NW 4.0 mph 7.0 mph 76% 0.00 in 81 W/m2
09:08 14.7 °F 8.5 °F 29.86 in NNW 5.0 mph 7.0 mph 76% 0.00 in 79 W/m2
09:14 14.8 °F 8.9 °F 29.86 in NNW 5.0 mph 6.0 mph 77% 0.00 in 81 W/m2
09:20 15.0 °F 9.4 °F 29.86 in North 4.0 mph 4.0 mph 78% 0.00 in 97 W/m2
09:26 15.2 °F 9.3 °F 29.86 in NNW 4.0 mph 5.0 mph 77% 0.00 in 102 W/m2
09:32 15.3 °F 9.4 °F 29.86 in NW 5.0 mph 5.0 mph 77% 0.00 in 139 W/m2
09:38 15.6 °F 9.1 °F 29.86 in NNW 5.0 mph 10.0 mph 75% 0.00 in 74 W/m2
09:44 15.5 °F 9.0 °F 29.87 in North 6.0 mph 6.0 mph 75% 0.00 in 141 W/m2
09:50 16.4 °F 9.3 °F 29.86 in NW 5.0 mph 8.0 mph 73% 0.00 in 128 W/m2
09:56 16.0 °F 9.2 °F 29.86 in NNW 5.0 mph 8.0 mph 74% 0.00 in 174 W/m2
10:02 17.0 °F 10.1 °F 29.86 in NNW 5.0 mph 8.0 mph 74% 0.00 in 171 W/m2
10:08 17.1 °F 9.9 °F 29.86 in NW 3.0 mph 8.0 mph 73% 0.00 in 139 W/m2
10:14 16.1 °F 8.3 °F 29.87 in NNE 5.0 mph 9.0 mph 71% 0.00 in 158 W/m2
10:20 16.3 °F 9.2 °F 29.87 in NNW 6.0 mph 6.0 mph 73% 0.00 in 188 W/m2
10:26 16.6 °F 9.8 °F 29.87 in WNW 3.0 mph 6.0 mph 74% 0.00 in 162 W/m2
10:32 16.4 °F 8.9 °F 29.87 in NW 4.0 mph 5.0 mph 72% 0.00 in 195 W/m2
10:38 16.5 °F 9.0 °F 29.87 in NW 5.0 mph 7.0 mph 72% 0.00 in 202 W/m2
10:44 16.5 °F 8.7 °F 29.88 in WNW 5.0 mph 11.0 mph 71% 0.00 in 218 W/m2
10:50 16.2 °F 8.8 °F 29.87 in NNW 5.0 mph 7.0 mph 72% 0.00 in 158 W/m2
10:56 16.1 °F 8.7 °F 29.87 in WNW 5.0 mph 12.0 mph 72% 0.00 in 214 W/m2
11:02 16.4 °F 8.6 °F 29.87 in NNW 5.0 mph 8.0 mph 71% 0.00 in 206 W/m2
11:08 16.3 °F 8.2 °F 29.87 in NW 5.0 mph 8.0 mph 70% 0.00 in 186 W/m2
11:14 16.4 °F 8.3 °F 29.88 in NW 5.0 mph 6.0 mph 70% 0.00 in 204 W/m2
11:20 16.1 °F 7.4 °F 29.88 in NW 5.0 mph 9.0 mph 68% 0.00 in 204 W/m2
11:26 16.1 °F 7.7 °F 29.88 in NNW 6.0 mph 9.0 mph 69% 0.00 in 204 W/m2
11:32 16.0 °F 7.6 °F 29.89 in North 5.0 mph 9.0 mph 69% 0.00 in 199 W/m2
11:38 16.1 °F 7.4 °F 29.89 in NW 5.0 mph 9.0 mph 68% 0.00 in 278 W/m2
11:44 16.1 °F 7.7 °F 29.89 in WNW 5.0 mph 6.0 mph 69% 0.00 in 274 W/m2
11:50 15.8 °F 7.1 °F 29.89 in NW 6.0 mph 6.0 mph 68% 0.00 in 250 W/m2
11:56 15.6 °F 6.6 °F 29.89 in WNW 6.0 mph 6.0 mph 67% 0.00 in 322 W/m2
12:02 15.7 °F 7.0 °F 29.89 in NNW 5.0 mph 5.0 mph 68% 0.00 in 276 W/m2
12:08 16.0 °F 7.3 °F 29.89 in NNW 5.0 mph 5.0 mph 68% 0.00 in 264 W/m2
12:14 15.7 °F 6.3 °F 29.89 in WNW 5.0 mph 5.0 mph 66% 0.00 in 234 W/m2
12:20 15.6 °F 6.3 °F 29.89 in NNW 5.0 mph 5.0 mph 66% 0.00 in 311 W/m2
12:26 15.8 °F 6.8 °F 29.89 in NNW 5.0 mph 5.0 mph 67% 0.00 in 306 W/m2
12:32 16.1 °F 6.4 °F 29.89 in NW 5.0 mph 5.0 mph 65% 0.00 in 264 W/m2
12:38 16.2 °F 6.5 °F 29.89 in WNW 6.0 mph 10.0 mph 65% 0.00 in 362 W/m2
12:44 16.8 °F 6.7 °F 29.88 in WNW 5.0 mph 6.0 mph 64% 0.00 in 882 W/m2
12:50 16.3 °F 6.2 °F 29.89 in NNW 6.0 mph 11.0 mph 64% 0.00 in 329 W/m2
12:56 15.8 °F 6.1 °F 29.88 in NW 6.0 mph 11.0 mph 65% 0.00 in 209 W/m2
13:02 16.3 °F 7.3 °F 29.88 in NW 5.0 mph 6.0 mph 67% 0.00 in 434 W/m2
13:08 16.6 °F 7.2 °F 29.88 in NNE 5.0 mph 7.0 mph 66% 0.00 in 264 W/m2
13:14 16.6 °F 6.5 °F 29.87 in NNW 5.0 mph 6.0 mph 64% 0.00 in 647 W/m2
13:20 16.9 °F 6.8 °F 29.88 in NW 5.0 mph 6.0 mph 64% 0.00 in 747 W/m2
13:26 16.6 °F 6.9 °F 29.88 in NW 7.0 mph 11.0 mph 65% 0.00 in 420 W/m2
13:32 16.8 °F 6.4 °F 29.88 in NW 7.0 mph 9.0 mph 63% 0.00 in 691 W/m2
13:38 15.7 °F 5.7 °F 29.88 in NNW 8.0 mph 9.0 mph 64% 0.00 in 204 W/m2
13:44 15.7 °F 6.0 °F 29.88 in NW 7.0 mph 11.0 mph 65% 0.00 in 295 W/m2
13:50 15.6 °F 5.9 °F 29.88 in NNW 6.0 mph 6.0 mph 65% 0.00 in 195 W/m2
13:56 15.3 °F 6.0 °F 29.88 in NNW 6.0 mph 8.0 mph 66% 0.00 in 179 W/m2
14:02 15.0 °F 5.7 °F 29.88 in NNW 6.0 mph 6.0 mph 66% 0.00 in 204 W/m2
14:08 15.1 °F 5.4 °F 29.88 in West 6.0 mph 12.0 mph 65% 0.00 in 499 W/m2
14:14 15.7 °F 6.0 °F 29.89 in NNW 6.0 mph 6.0 mph 65% 0.00 in 540 W/m2
14:20 16.3 °F 6.2 °F 29.89 in NW 6.0 mph 6.0 mph 64% 0.00 in 499 W/m2
14:26 17.2 °F 6.8 °F 29.89 in NW 6.0 mph 8.0 mph 63% 0.00 in 582 W/m2
14:32 17.0 °F 6.2 °F 29.89 in NW 7.0 mph 7.0 mph 62% 0.00 in 541 W/m2
14:38 16.2 °F 5.1 °F 29.89 in WNW 6.0 mph 8.0 mph 61% 0.00 in 448 W/m2
14:44 15.6 °F 4.9 °F 29.89 in NW 6.0 mph 7.0 mph 62% 0.00 in 132 W/m2
14:50 15.5 °F 4.4 °F 29.89 in NW 6.0 mph 9.0 mph 61% 0.00 in 281 W/m2
14:56 16.3 °F 5.5 °F 29.90 in NNW 6.0 mph 9.0 mph 62% 0.00 in 330 W/m2
15:02 15.9 °F 4.8 °F 29.91 in NNW 5.0 mph 7.0 mph 61% 0.00 in 155 W/m2
15:08 16.1 °F 4.6 °F 29.91 in NNW 6.0 mph 7.0 mph 60% 0.00 in 410 W/m2
15:16 16.1 °F 4.6 °F 29.91 in North 5.0 mph 7.0 mph 60% 0.00 in 98 W/m2
15:28 15.7 °F 4.3 °F 29.91 in NW 5.0 mph 5.0 mph 60% 0.00 in 105 W/m2
15:34 16.0 °F 4.2 °F 29.91 in WSW 5.0 mph 8.0 mph 59% 0.00 in 230 W/m2
15:40 16.3 °F 3.7 °F 29.92 in NW 6.0 mph 6.0 mph 57% 0.00 in 207 W/m2
15:46 16.3 °F 4.1 °F 29.92 in WNW 7.0 mph 10.0 mph 58% 0.00 in 320 W/m2
15:52 16.2 °F 4.0 °F 29.92 in WNW 5.0 mph 7.0 mph 58% 0.00 in 100 W/m2
15:58 15.7 °F 3.9 °F 29.92 in NW 6.0 mph 10.0 mph 59% 0.00 in 65 W/m2
16:04 15.5 °F 3.7 °F 29.93 in NW 6.0 mph 8.0 mph 59% 0.00 in 44 W/m2
16:10 15.4 °F 3.6 °F 29.93 in NW 4.0 mph 4.0 mph 59% 0.00 in 46 W/m2
16:16 15.4 °F 3.6 °F 29.93 in NNW 5.0 mph 10.0 mph 59% 0.00 in 56 W/m2
16:22 15.5 °F 4.4 °F 29.93 in NW 6.0 mph 9.0 mph 61% 0.00 in 67 W/m2
16:28 15.7 °F 4.6 °F 29.93 in WNW 5.0 mph 9.0 mph 61% 0.00 in 70 W/m2
16:34 16.0 °F 4.2 °F 29.94 in NW 5.0 mph 5.0 mph 59% 0.00 in 67 W/m2
16:40 16.1 °F 4.6 °F 29.94 in NNW 4.0 mph 5.0 mph 60% 0.00 in 62 W/m2
16:46 15.9 °F 3.7 °F 29.94 in WNW 5.0 mph 9.0 mph 58% 0.00 in 47 W/m2
16:52 15.7 °F 3.5 °F 29.94 in NW 6.0 mph 6.0 mph 58% 0.00 in 42 W/m2
16:58 15.8 °F 3.2 °F 29.95 in NW 6.0 mph 7.0 mph 57% 0.00 in 30 W/m2
17:04 15.7 °F 3.5 °F 29.95 in WNW 5.0 mph 8.0 mph 58% 0.00 in 23 W/m2
17:10 15.6 °F 3.4 °F 29.95 in NW 4.0 mph 4.0 mph 58% 0.00 in 16 W/m2
17:16 15.5 °F 3.7 °F 29.95 in NW 3.0 mph 4.0 mph 59% 0.00 in 11 W/m2
17:22 15.4 °F 3.2 °F 29.95 in NW 3.0 mph 8.0 mph 58% 0.00 in 7 W/m2
17:28 15.2 °F 3.4 °F 29.96 in NW 3.0 mph 8.0 mph 59% 0.00 in 5 W/m2
17:34 15.3 °F 3.5 °F 29.96 in NNW 3.0 mph 6.0 mph 59% 0.00 in 0 W/m2
17:40 15.2 °F 3.4 °F 29.96 in NW 3.0 mph 3.0 mph 59% 0.00 in 0 W/m2
17:46 15.0 °F 3.2 °F 29.96 in WNW 2.0 mph 3.0 mph 59% 0.00 in 0 W/m2
17:56 14.8 °F 3.4 °F 29.96 in NW 2.0 mph 4.0 mph 60% 0.00 in 0 W/m2
18:02 14.7 °F 3.3 °F 29.96 in NNW 2.0 mph 2.0 mph 60% 0.00 in 0 W/m2
18:08 14.7 °F 3.3 °F 29.96 in WNW 2.0 mph 3.0 mph 60% 0.00 in 0 W/m2
18:14 14.7 °F 2.9 °F 29.97 in WNW 2.0 mph 2.0 mph 59% 0.00 in 0 W/m2
18:22 14.5 °F 3.1 °F 29.97 in WNW 1.0 mph 1.0 mph 60% 0.00 in 0 W/m2
18:32 14.3 °F 2.9 °F 29.97 in Calm   1.0 mph 60% 0.00 in 0 W/m2
18:38 14.1 °F 2.7 °F 29.97 in Calm   1.0 mph 60% 0.00 in 0 W/m2
18:50 13.8 °F 2.8 °F 29.97 in Calm     61% 0.00 in 0 W/m2
18:56 13.6 °F 2.6 °F 29.97 in Calm   1.0 mph 61% 0.00 in 0 W/m2
19:02 13.5 °F 2.9 °F 29.97 in Calm     62% 0.00 in 0 W/m2
19:08 13.2 °F 2.9 °F 29.97 in Calm     63% 0.00 in 0 W/m2
19:18 13.0 °F 3.1 °F 29.98 in Calm     64% 0.00 in 0 W/m2
19:36 12.3 °F 3.1 °F 29.98 in Calm     66% 0.00 in 0 W/m2
19:44 11.9 °F 3.0 °F 29.98 in Calm     67% 0.00 in 0 W/m2
19:52 11.4 °F 2.9 °F 29.98 in Calm     68% 0.00 in 0 W/m2
19:58 10.9 °F 2.7 °F 29.98 in Calm     69% 0.00 in 0 W/m2
20:08 10.4 °F 3.5 °F 29.98 in Calm     73% 0.00 in 0 W/m2
20:14 10.3 °F 3.9 °F 29.98 in Calm     75% 0.00 in 0 W/m2
20:20 10.5 °F 4.1 °F 29.98 in Calm     75% 0.00 in 0 W/m2
20:26 10.9 °F 4.8 °F 29.98 in Calm     76% 0.00 in 0 W/m2
20:38 11.8 °F 6.0 °F 29.98 in Calm     77% 0.00 in 0 W/m2
20:44 12.8 °F 6.9 °F 29.98 in Calm     77% 0.00 in 0 W/m2
20:50 13.6 °F 7.7 °F 29.97 in Calm     77% 0.00 in 0 W/m2
20:56 13.6 °F 7.4 °F 29.97 in Calm     76% 0.00 in 0 W/m2
21:02 13.4 °F 7.2 °F 29.97 in Calm     76% 0.00 in 0 W/m2
21:08 13.3 °F 7.1 °F 29.97 in Calm     76% 0.00 in 0 W/m2
21:12 13.3 °F 7.1 °F 29.97 in Calm     76% 0.00 in 0 W/m2
21:18 13.5 °F 7.6 °F 29.97 in Calm   1.0 mph 77% 0.00 in 0 W/m2
21:24 14.2 °F 8.3 °F 29.98 in WNW 1.0 mph 1.0 mph 77% 0.00 in 0 W/m2
21:30 15.4 °F 8.0 °F 29.98 in SW 2.0 mph 2.0 mph 72% 0.00 in 0 W/m2
21:36 16.3 °F 9.2 °F 29.98 in WSW 3.0 mph 6.0 mph 73% 0.00 in 0 W/m2
21:42 16.5 °F 11.1 °F 29.99 in West 3.0 mph 4.0 mph 79% 0.00 in 0 W/m2
21:48 16.3 °F 11.8 °F 29.98 in WSW 2.0 mph 4.0 mph 82% 0.00 in 0 W/m2
21:54 16.3 °F 12.3 °F 29.98 in WSW 1.0 mph 1.0 mph 84% 0.00 in 0 W/m2
22:00 16.6 °F 13.1 °F 29.98 in WSW 1.0 mph 2.0 mph 86% 0.00 in 0 W/m2
22:06 16.9 °F 13.4 °F 29.98 in WSW 1.0 mph 2.0 mph 86% 0.00 in 0 W/m2
22:12 17.0 °F 13.5 °F 29.98 in SW 2.0 mph 2.0 mph 86% 0.00 in 0 W/m2
22:18 17.4 °F 14.2 °F 29.98 in West 2.0 mph 3.0 mph 87% 0.00 in 0 W/m2
22:24 17.6 °F 14.4 °F 29.98 in West 2.0 mph 2.0 mph 87% 0.00 in 0 W/m2
22:30 17.7 °F 14.5 °F 29.98 in West 2.0 mph 2.0 mph 87% 0.00 in 0 W/m2
22:36 17.8 °F 14.8 °F 29.98 in West 1.0 mph 3.0 mph 88% 0.00 in 0 W/m2
22:42 17.8 °F 14.6 °F 29.98 in West 2.0 mph 2.0 mph 87% 0.00 in 0 W/m2
22:48 17.8 °F 14.8 °F 29.98 in WNW 2.0 mph 2.0 mph 88% 0.00 in 0 W/m2
22:54 17.8 °F 14.8 °F 29.98 in West 2.0 mph 3.0 mph 88% 0.00 in 0 W/m2
23:00 17.8 °F 14.8 °F 29.98 in West 2.0 mph 2.0 mph 88% 0.00 in 0 W/m2
23:06 17.8 °F 14.8 °F 29.98 in West 2.0 mph 3.0 mph 88% 0.00 in 0 W/m2
23:12 17.8 °F 14.8 °F 29.98 in West 1.0 mph 2.0 mph 88% 0.00 in 0 W/m2
23:18 17.8 °F 14.8 °F 29.99 in West 1.0 mph 3.0 mph 88% 0.00 in 0 W/m2
23:24 17.9 °F 14.9 °F 29.99 in West 2.0 mph 2.0 mph 88% 0.00 in 0 W/m2
23:30 17.9 °F 14.9 °F 29.99 in West 2.0 mph 2.0 mph 88% 0.00 in 0 W/m2
23:36 18.0 °F 15.0 °F 29.99 in West 2.0 mph 2.0 mph 88% 0.00 in 0 W/m2
23:42 18.1 °F 15.1 °F 30.00 in West 2.0 mph 2.0 mph 88% 0.00 in 0 W/m2
23:48 18.4 °F 15.2 °F 30.00 in WNW 3.0 mph 5.0 mph 87% 0.00 in 0 W/m2
23:54 18.8 °F 15.3 °F 30.00 in NW 4.0 mph 5.0 mph 86% 0.00 in 0 W/m2
Country Meadow, Clay, NY, USA
Compliments of Weather Underground - 2 mb